Terminal Aerodrome Forecast
Issued by NWS

Current Version | Previous Version | Text Only | Print | Product List | Glossary On
Versions: 1 2 3 4 5 6 7 8 9 10 11 12 13 14 15 16 17 18 19 20 21 22 23 24 25 26 27 28 29 30 31 32 33 34 35 36 37 38 39 40 41 42 43 44 45 46 47 48 49
000
FTUS43 KLOT 251511 AAA
TAFGYY
TAF AMD
KGYY 251511Z 2515/2612 26009KT P6SM OVC013
     FM251800 36009KT P6SM BKN020
     FM252000 01010KT P6SM VCSH SCT035 BKN090
     FM260100 29004KT P6SM SCT120
     FM260800 33005KT P6SM BKN100=

USA.gov is the U.S. government's official web portal to all federal, state and local government web resources and services.